createdAt,value
2018-05-06T16:45:20.807Z,31.40
2018-05-06T16:47:48.297Z,31.30
2018-05-06T16:50:15.756Z,32.70
2018-05-06T16:52:43.279Z,34.40
2018-05-06T16:55:10.661Z,35.00
2018-05-06T16:57:38.084Z,34.70
2018-05-06T17:00:05.564Z,35.60
2018-05-06T17:02:32.987Z,35.30
2018-05-06T17:05:01.179Z,36.50
2018-05-06T17:07:28.648Z,36.50
2018-05-06T17:09:56.083Z,36.50
2018-05-06T17:12:23.505Z,37.00
2018-05-06T17:14:51.737Z,37.40
2018-05-06T17:17:19.164Z,37.10
2018-05-06T17:19:46.654Z,37.50
2018-05-06T17:22:14.081Z,37.50
2018-05-06T17:24:41.507Z,37.40
2018-05-06T17:27:09.731Z,37.80
2018-05-06T17:29:37.165Z,37.80
2018-05-06T17:32:04.585Z,38.00
2018-05-06T17:34:32.016Z,38.30
2018-05-06T17:36:59.457Z,38.60
2018-05-06T17:39:26.913Z,39.10
2018-05-06T17:41:54.345Z,39.20
2018-05-06T17:44:22.593Z,39.40
2018-05-06T17:46:50.813Z,40.00
2018-05-06T17:49:18.237Z,40.00
2018-05-06T17:51:45.660Z,39.90
2018-05-06T17:54:13.848Z,40.60
2018-05-06T17:56:42.056Z,40.50
2018-05-06T17:59:09.465Z,40.40
2018-05-06T18:01:36.932Z,41.00
2018-05-06T18:04:04.325Z,41.20
2018-05-06T18:06:31.795Z,40.20
2018-05-06T18:08:59.221Z,39.50
2018-05-06T18:11:26.704Z,36.60
2018-05-06T18:13:54.164Z,35.20
2018-05-06T18:16:21.600Z,35.10
2018-05-06T18:18:49.024Z,35.80
2018-05-06T18:21:17.229Z,37.00
2018-05-06T18:23:44.709Z,37.00
2018-05-06T18:26:12.143Z,37.70
2018-05-06T18:28:39.574Z,38.90
2018-05-06T18:31:07.003Z,37.10
2018-05-06T18:33:34.428Z,34.90
2018-05-06T18:36:01.862Z,34.40
2018-05-06T18:38:29.281Z,35.20
2018-05-06T18:40:57.486Z,38.60
2018-05-06T18:43:24.961Z,38.50
2018-05-06T18:45:52.404Z,39.80
2018-05-06T18:48:19.816Z,40.80
2018-05-06T18:50:48.149Z,42.50
2018-05-06T18:53:15.577Z,42.40
2018-05-06T18:55:43.024Z,43.10
2018-05-06T18:58:10.445Z,43.70
2018-05-06T19:00:37.872Z,44.10
2018-05-06T19:03:05.325Z,44.90
2018-05-06T19:05:32.780Z,45.10
2018-05-06T19:08:00.206Z,45.30
2018-05-06T19:10:27.640Z,46.00
2018-05-06T19:12:55.836Z,46.60
2018-05-06T19:15:23.336Z,46.60
2018-05-06T19:17:50.760Z,46.80
2018-05-06T19:20:18.232Z,47.10
2018-05-06T19:22:45.670Z,47.50
2018-05-06T19:25:13.146Z,47.70
2018-05-06T19:27:40.569Z,48.20
2018-05-06T19:30:07.988Z,48.40
2018-05-06T19:32:36.967Z,48.90
2018-05-06T19:35:04.401Z,48.90
2018-05-06T19:37:31.843Z,49.10
2018-05-06T19:39:59.261Z,49.70
2018-05-06T19:42:27.475Z,50.10
2018-05-06T19:44:54.940Z,50.00
2018-05-06T19:47:22.377Z,50.40
2018-05-06T19:49:50.612Z,50.50
2018-05-06T19:52:18.816Z,50.90
2018-05-06T19:54:46.302Z,50.90
2018-05-06T19:57:13.728Z,51.30
2018-05-06T19:59:41.160Z,51.40
2018-05-06T20:02:09.354Z,51.70
2018-05-06T20:04:36.832Z,51.70
2018-05-06T20:07:04.261Z,51.80
2018-05-06T20:09:31.685Z,51.90
2018-05-06T20:11:59.118Z,51.90
2018-05-06T20:14:26.549Z,51.90
2018-05-06T20:16:54.012Z,52.20
2018-05-06T20:19:21.446Z,52.30
2018-05-06T20:21:48.866Z,52.20
2018-05-06T20:24:17.108Z,52.70
2018-05-06T20:26:44.545Z,52.00
2018-05-06T20:29:12.004Z,52.10
2018-05-06T20:31:39.464Z,52.20
2018-05-06T20:34:06.930Z,52.50
2018-05-06T20:36:34.895Z,52.50
2018-05-06T20:39:02.315Z,52.70
2018-05-06T20:41:29.807Z,52.80
2018-05-06T20:43:57.237Z,52.90
2018-05-06T20:46:24.664Z,52.90
2018-05-06T20:48:52.880Z,53.40
2018-05-06T20:51:20.340Z,53.30
2018-05-06T20:53:47.761Z,53.50
2018-05-06T20:56:15.209Z,53.40
2018-05-06T20:58:43.438Z,53.80
2018-05-06T21:01:10.866Z,53.70
2018-05-06T21:03:38.318Z,53.80
2018-05-06T21:06:05.724Z,54.00
2018-05-06T21:08:33.255Z,54.10
2018-05-06T21:11:00.735Z,54.30
2018-05-06T21:13:28.155Z,54.40
2018-05-06T21:15:55.581Z,54.60
2018-05-06T21:18:23.792Z,54.90
2018-05-06T21:20:51.248Z,54.80
2018-05-06T21:23:18.696Z,55.50
2018-05-06T21:25:46.117Z,55.00
2018-05-06T21:28:13.556Z,55.10
2018-05-06T21:30:41.796Z,55.40
2018-05-06T21:33:09.280Z,55.30
2018-05-06T21:35:36.701Z,55.50
2018-05-06T21:38:04.152Z,55.70
2018-05-06T21:40:31.608Z,55.80
2018-05-06T21:42:59.060Z,55.90
2018-05-06T21:45:26.499Z,56.00
2018-05-06T21:47:53.973Z,56.30
2018-05-06T21:50:21.400Z,56.50
2018-05-06T21:52:48.840Z,56.60
2018-05-06T21:55:17.065Z,57.00
2018-05-06T21:57:44.516Z,57.00
2018-05-06T22:00:11.972Z,57.00
2018-05-06T22:02:39.388Z,57.10
2018-05-06T22:05:06.813Z,57.40
2018-05-06T22:07:34.317Z,58.20
2018-05-06T22:10:01.673Z,57.80
2018-05-06T22:12:29.148Z,58.20
2018-05-06T22:14:56.584Z,58.30
2018-05-06T22:17:24.008Z,58.70
2018-05-06T22:19:52.199Z,59.50
2018-05-06T22:22:19.629Z,59.40
2018-05-06T22:24:47.821Z,60.10
2018-05-06T22:27:15.248Z,60.10
2018-05-06T22:29:44.208Z,60.70
2018-05-06T22:32:11.674Z,60.60
2018-05-06T22:34:39.107Z,60.70
2018-05-06T22:37:06.525Z,61.00
2018-05-06T22:39:34.749Z,61.30
2018-05-06T22:42:02.206Z,61.30
2018-05-06T22:44:29.628Z,61.50
2018-05-06T22:46:57.052Z,61.50
2018-05-06T22:49:25.288Z,61.60
2018-05-06T22:51:52.712Z,61.40
2018-05-06T22:54:20.148Z,61.70
2018-05-06T22:56:48.336Z,61.50
2018-05-06T22:59:15.824Z,61.50
2018-05-06T23:01:43.281Z,61.80
2018-05-06T23:04:10.711Z,61.80
2018-05-06T23:06:38.133Z,62.00
2018-05-06T23:09:06.328Z,62.50
2018-05-06T23:11:33.756Z,62.40
2018-05-06T23:14:01.988Z,62.50
2018-05-06T23:16:29.424Z,62.40
2018-05-06T23:18:56.877Z,62.60
2018-05-06T23:21:25.845Z,62.70
2018-05-06T23:23:54.040Z,62.90
2018-05-06T23:26:21.526Z,62.80
2018-05-06T23:28:48.952Z,62.90
2018-05-06T23:31:16.436Z,63.10
2018-05-06T23:33:43.865Z,63.20
2018-05-06T23:36:11.292Z,63.20
2018-05-06T23:38:39.496Z,63.40
2018-05-06T23:41:06.929Z,63.30
2018-05-06T23:43:35.129Z,63.40
2018-05-06T23:46:02.561Z,63.40
2018-05-06T23:48:30.773Z,63.60
2018-05-06T23:50:58.176Z,63.60
2018-05-06T23:53:26.377Z,63.90
2018-05-06T23:55:53.835Z,63.80
2018-05-06T23:58:21.331Z,64.00
